Etusivu
METAR-TAF:

METAR-TAF

Lentoasemat :

Jämsä, Suomi

Hallin lentoasema

Leveyspiiri: 61-51N, Pituuspiiri: 024-48E, korkeus merenpinnasta: 143 m

Tämänhetkinen sää

Tämä raportti tehtiin 43 minuuttia sitten, kello 11.50 UTC
Tuuli 4 kn luoteesta
Lämpötila 4°C
Kosteus 93%
Ilmanpaine 1016 hPa
Näkyvyys 10 km tai enemmän
Hajonneita pilviä 1800 ft:n korkeudessa
heikkoja vesikuuroja

METAR: EFHA 191150Z 31004KT 9999 -SHRA BKN018 04/03 Q1016

Aika: 15:33 (12:33 UTC)

Sääennuste

Tämä raportti tehtiin 1 tunti ja 3 minuuttia sitten, kello 11.30 UTC
Ennuste voimassa 19. päivästä klo 12 UTC - 19. päivään klo 14 UTC
Tuuli 7 kn lännestä/luoteesta
Näkyvyys 10 km tai enemmän
Hajonneita pilviä 2000 ft:n korkeudessa
heikkoja vesikuuroja

TAF: EFHA 191130Z 1912/1914 30007KT 9999 -SHRA BKN020

Säähavainnot ja -ennusteet yli 4000 lentoasemalta (METAR- ja TAF-raportit).

Käytössä olevat sääasemat on merkitty karttaan keltaisilla ja punaisilla pisteillä.

Aseta hiiri pisteen päälle nähdäksesi sääaseman nimen.

Klikkaa sitten nähdäksesi säähavainnot ja -ennusteet.

Kartan vaihtaminen: klikkaa mustalla rastilla varustettuja vihreitä pisteitä, niin voit zoomata sisään; viivalla varustettua vihreää pistettä, niin voit zoomata ulos tai vihreitä nuolia, niin pääset viereisille kartoille.


METAR-TAF: